sensor_id;sensor_type;location;lat;lon;timestamp;P1;durP1;ratioP1;P2;durP2;ratioP2
47289;SDS011;33197;52.524;13.444;2022-12-31T00:00:20;4.70;;;2.58;;
47289;SDS011;33197;52.524;13.444;2022-12-31T00:02:47;3.95;;;2.60;;
47289;SDS011;33197;52.524;13.444;2022-12-31T00:05:14;4.00;;;2.30;;
47289;SDS011;33197;52.524;13.444;2022-12-31T00:07:42;3.30;;;1.92;;
47289;SDS011;33197;52.524;13.444;2022-12-31T00:10:08;6.10;;;4.07;;
47289;SDS011;33197;52.524;13.444;2022-12-31T00:12:35;3.58;;;2.50;;
47289;SDS011;33197;52.524;13.444;2022-12-31T00:15:02;2.85;;;1.90;;
47289;SDS011;33197;52.524;13.444;2022-12-31T00:17:30;3.35;;;2.17;;
47289;SDS011;33197;52.524;13.444;2022-12-31T00:19:57;2.97;;;1.95;;
47289;SDS011;33197;52.524;13.444;2022-12-31T00:22:24;3.38;;;2.00;;
47289;SDS011;33197;52.524;13.444;2022-12-31T00:24:51;2.08;;;1.40;;
47289;SDS011;33197;52.524;13.444;2022-12-31T00:27:18;3.25;;;1.48;;
47289;SDS011;33197;52.524;13.444;2022-12-31T00:29:48;2.95;;;1.60;;
47289;SDS011;33197;52.524;13.444;2022-12-31T00:32:15;3.00;;;1.50;;
47289;SDS011;33197;52.524;13.444;2022-12-31T00:34:42;2.65;;;1.40;;
47289;SDS011;33197;52.524;13.444;2022-12-31T00:37:09;6.40;;;2.10;;
47289;SDS011;33197;52.524;13.444;2022-12-31T00:39:36;4.70;;;1.77;;
47289;SDS011;33197;52.524;13.444;2022-12-31T00:42:03;3.92;;;1.95;;
47289;SDS011;33197;52.524;13.444;2022-12-31T00:44:30;2.38;;;1.88;;
47289;SDS011;33197;52.524;13.444;2022-12-31T00:46:58;4.95;;;1.77;;
47289;SDS011;33197;52.524;13.444;2022-12-31T00:49:25;4.85;;;1.52;;
47289;SDS011;33197;52.524;13.444;2022-12-31T00:51:52;3.53;;;1.75;;
47289;SDS011;33197;52.524;13.444;2022-12-31T00:54:19;3.17;;;1.67;;
47289;SDS011;33197;52.524;13.444;2022-12-31T00:56:46;3.63;;;1.45;;
47289;SDS011;33197;52.524;13.444;2022-12-31T00:59:13;3.20;;;1.77;;
47289;SDS011;33197;52.524;13.444;2022-12-31T01:01:41;3.50;;;1.90;;
47289;SDS011;33197;52.524;13.444;2022-12-31T01:04:11;2.67;;;1.70;;
47289;SDS011;33197;52.524;13.444;2022-12-31T01:06:39;3.20;;;1.98;;
47289;SDS011;33197;52.524;13.444;2022-12-31T01:09:07;4.80;;;2.15;;
47289;SDS011;33197;52.524;13.444;2022-12-31T01:11:35;3.80;;;2.20;;
47289;SDS011;33197;52.524;13.444;2022-12-31T01:14:07;3.60;;;1.70;;
47289;SDS011;33197;52.524;13.444;2022-12-31T01:16:39;4.03;;;2.00;;
47289;SDS011;33197;52.524;13.444;2022-12-31T01:19:09;4.50;;;2.35;;
47289;SDS011;33197;52.524;13.444;2022-12-31T01:21:39;2.83;;;1.70;;
47289;SDS011;33197;52.524;13.444;2022-12-31T01:24:07;2.53;;;1.65;;
47289;SDS011;33197;52.524;13.444;2022-12-31T01:26:35;2.70;;;1.85;;
47289;SDS011;33197;52.524;13.444;2022-12-31T01:29:04;2.80;;;1.40;;
47289;SDS011;33197;52.524;13.444;2022-12-31T01:31:32;2.55;;;1.48;;
47289;SDS011;33197;52.524;13.444;2022-12-31T01:33:59;2.22;;;1.13;;
47289;SDS011;33197;52.524;13.444;2022-12-31T01:36:28;1.70;;;1.05;;
47289;SDS011;33197;52.524;13.444;2022-12-31T01:38:58;2.38;;;1.27;;
47289;SDS011;33197;52.524;13.444;2022-12-31T01:41:27;1.70;;;1.10;;
47289;SDS011;33197;52.524;13.444;2022-12-31T01:44:00;1.92;;;0.98;;
47289;SDS011;33197;52.524;13.444;2022-12-31T01:46:48;1.77;;;1.20;;
47289;SDS011;33197;52.524;13.444;2022-12-31T01:51:57;1.13;;;0.80;;
47289;SDS011;33197;52.524;13.444;2022-12-31T01:54:30;1.88;;;1.10;;
47289;SDS011;33197;52.524;13.444;2022-12-31T01:57:00;1.73;;;1.05;;
47289;SDS011;33197;52.524;13.444;2022-12-31T01:59:29;3.67;;;1.27;;
47289;SDS011;33197;52.524;13.444;2022-12-31T02:01:56;2.20;;;1.42;;
47289;SDS011;33197;52.524;13.444;2022-12-31T02:04:25;2.17;;;1.02;;
47289;SDS011;33197;52.524;13.444;2022-12-31T02:06:56;1.10;;;0.82;;
47289;SDS011;33197;52.524;13.444;2022-12-31T02:09:26;1.63;;;0.90;;
47289;SDS011;33197;52.524;13.444;2022-12-31T02:11:54;2.65;;;0.70;;
47289;SDS011;33197;52.524;13.444;2022-12-31T02:14:40;1.40;;;0.90;;
47289;SDS011;33197;52.524;13.444;2022-12-31T02:17:25;2.33;;;0.70;;
47289;SDS011;33197;52.524;13.444;2022-12-31T02:25:54;1.10;;;0.60;;
47289;SDS011;33197;52.524;13.444;2022-12-31T02:29:07;1.45;;;0.98;;
47289;SDS011;33197;52.524;13.444;2022-12-31T02:31:43;0.60;;;0.50;;
47289;SDS011;33197;52.524;13.444;2022-12-31T02:36:57;2.35;;;0.80;;
47289;SDS011;33197;52.524;13.444;2022-12-31T02:39:26;1.45;;;1.00;;
47289;SDS011;33197;52.524;13.444;2022-12-31T02:41:54;2.65;;;1.30;;
47289;SDS011;33197;52.524;13.444;2022-12-31T02:44:26;2.85;;;1.30;;
47289;SDS011;33197;52.524;13.444;2022-12-31T02:47:16;3.17;;;1.30;;
47289;SDS011;33197;52.524;13.444;2022-12-31T02:50:04;2.38;;;1.13;;
47289;SDS011;33197;52.524;13.444;2022-12-31T02:55:47;2.03;;;1.48;;
47289;SDS011;33197;52.524;13.444;2022-12-31T03:01:23;1.42;;;0.95;;
47289;SDS011;33197;52.524;13.444;2022-12-31T03:04:12;3.10;;;1.30;;
47289;SDS011;33197;52.524;13.444;2022-12-31T03:07:07;2.95;;;1.92;;
47289;SDS011;33197;52.524;13.444;2022-12-31T03:09:35;3.13;;;1.75;;
47289;SDS011;33197;52.524;13.444;2022-12-31T03:12:03;3.00;;;1.80;;
47289;SDS011;33197;52.524;13.444;2022-12-31T03:14:50;6.43;;;1.80;;
47289;SDS011;33197;52.524;13.444;2022-12-31T03:17:17;1.45;;;1.10;;
47289;SDS011;33197;52.524;13.444;2022-12-31T03:19:45;2.33;;;1.25;;
47289;SDS011;33197;52.524;13.444;2022-12-31T03:22:31;2.30;;;1.10;;
47289;SDS011;33197;52.524;13.444;2022-12-31T03:25:09;1.02;;;0.80;;
47289;SDS011;33197;52.524;13.444;2022-12-31T03:28:01;1.50;;;0.82;;
47289;SDS011;33197;52.524;13.444;2022-12-31T03:30:30;1.95;;;0.90;;
47289;SDS011;33197;52.524;13.444;2022-12-31T03:32:58;1.58;;;1.10;;
47289;SDS011;33197;52.524;13.444;2022-12-31T03:35:26;0.70;;;0.60;;
47289;SDS011;33197;52.524;13.444;2022-12-31T03:37:54;1.05;;;0.73;;
47289;SDS011;33197;52.524;13.444;2022-12-31T03:40:23;1.42;;;0.68;;
47289;SDS011;33197;52.524;13.444;2022-12-31T03:42:51;1.55;;;0.73;;
47289;SDS011;33197;52.524;13.444;2022-12-31T03:45:18;0.70;;;0.60;;
47289;SDS011;33197;52.524;13.444;2022-12-31T03:47:46;1.65;;;0.70;;
47289;SDS011;33197;52.524;13.444;2022-12-31T03:50:14;0.65;;;0.60;;
47289;SDS011;33197;52.524;13.444;2022-12-31T03:52:42;0.73;;;0.60;;
47289;SDS011;33197;52.524;13.444;2022-12-31T03:55:10;0.85;;;0.50;;
47289;SDS011;33197;52.524;13.444;2022-12-31T03:57:37;0.57;;;0.40;;
47289;SDS011;33197;52.524;13.444;2022-12-31T04:00:06;2.15;;;0.60;;
47289;SDS011;33197;52.524;13.444;2022-12-31T04:02:35;0.88;;;0.57;;
47289;SDS011;33197;52.524;13.444;2022-12-31T04:05:02;1.55;;;0.60;;
47289;SDS011;33197;52.524;13.444;2022-12-31T04:07:30;1.45;;;0.77;;
47289;SDS011;33197;52.524;13.444;2022-12-31T04:09:57;1.05;;;0.65;;
47289;SDS011;33197;52.524;13.444;2022-12-31T04:12:24;0.90;;;0.55;;
47289;SDS011;33197;52.524;13.444;2022-12-31T04:14:52;1.30;;;0.73;;
47289;SDS011;33197;52.524;13.444;2022-12-31T04:17:20;0.50;;;0.43;;
47289;SDS011;33197;52.524;13.444;2022-12-31T04:19:47;1.40;;;0.40;;
47289;SDS011;33197;52.524;13.444;2022-12-31T04:22:14;0.90;;;0.50;;
47289;SDS011;33197;52.524;13.444;2022-12-31T04:24:41;0.93;;;0.40;;
47289;SDS011;33197;52.524;13.444;2022-12-31T04:27:09;0.75;;;0.57;;
47289;SDS011;33197;52.524;13.444;2022-12-31T04:29:37;0.95;;;0.60;;
47289;SDS011;33197;52.524;13.444;2022-12-31T04:32:06;1.65;;;0.57;;
47289;SDS011;33197;52.524;13.444;2022-12-31T04:34:34;0.40;;;0.40;;
47289;SDS011;33197;52.524;13.444;2022-12-31T04:37:01;0.50;;;0.50;;
47289;SDS011;33197;52.524;13.444;2022-12-31T04:39:29;1.20;;;0.50;;
47289;SDS011;33197;52.524;13.444;2022-12-31T04:41:56;5.20;;;0.60;;
47289;SDS011;33197;52.524;13.444;2022-12-31T04:44:23;1.65;;;0.82;;
47289;SDS011;33197;52.524;13.444;2022-12-31T04:46:50;1.15;;;0.68;;
47289;SDS011;33197;52.524;13.444;2022-12-31T04:49:18;1.73;;;0.50;;
47289;SDS011;33197;52.524;13.444;2022-12-31T04:51:45;1.73;;;0.60;;
47289;SDS011;33197;52.524;13.444;2022-12-31T04:54:12;1.05;;;0.70;;
47289;SDS011;33197;52.524;13.444;2022-12-31T04:56:39;1.65;;;0.65;;
47289;SDS011;33197;52.524;13.444;2022-12-31T04:59:07;1.05;;;0.63;;
47289;SDS011;33197;52.524;13.444;2022-12-31T05:01:35;0.65;;;0.32;;
47289;SDS011;33197;52.524;13.444;2022-12-31T05:04:04;1.15;;;0.50;;
47289;SDS011;33197;52.524;13.444;2022-12-31T05:06:31;0.30;;;0.30;;
47289;SDS011;33197;52.524;13.444;2022-12-31T05:08:59;1.70;;;1.15;;
47289;SDS011;33197;52.524;13.444;2022-12-31T05:11:26;1.20;;;0.50;;
47289;SDS011;33197;52.524;13.444;2022-12-31T05:13:54;1.08;;;0.60;;
47289;SDS011;33197;52.524;13.444;2022-12-31T05:16:21;5.22;;;1.05;;
47289;SDS011;33197;52.524;13.444;2022-12-31T05:18:48;1.45;;;0.68;;
47289;SDS011;33197;52.524;13.444;2022-12-31T05:21:17;0.52;;;0.40;;
47289;SDS011;33197;52.524;13.444;2022-12-31T05:23:47;0.80;;;0.40;;
47289;SDS011;33197;52.524;13.444;2022-12-31T05:26:14;0.57;;;0.40;;
47289;SDS011;33197;52.524;13.444;2022-12-31T05:28:42;0.88;;;0.40;;
47289;SDS011;33197;52.524;13.444;2022-12-31T05:31:09;2.47;;;0.60;;
47289;SDS011;33197;52.524;13.444;2022-12-31T05:33:37;1.33;;;0.52;;
47289;SDS011;33197;52.524;13.444;2022-12-31T05:36:04;1.42;;;0.50;;
47289;SDS011;33197;52.524;13.444;2022-12-31T05:38:31;0.30;;;0.30;;
47289;SDS011;33197;52.524;13.444;2022-12-31T05:40:59;0.50;;;0.50;;
47289;SDS011;33197;52.524;13.444;2022-12-31T05:43:27;3.00;;;0.55;;
47289;SDS011;33197;52.524;13.444;2022-12-31T05:45:55;3.28;;;0.60;;
47289;SDS011;33197;52.524;13.444;2022-12-31T05:48:22;1.50;;;0.40;;
47289;SDS011;33197;52.524;13.444;2022-12-31T05:50:50;1.27;;;0.70;;
47289;SDS011;33197;52.524;13.444;2022-12-31T05:53:17;0.40;;;0.40;;
47289;SDS011;33197;52.524;13.444;2022-12-31T05:55:45;0.50;;;0.43;;
47289;SDS011;33197;52.524;13.444;2022-12-31T05:58:13;2.00;;;0.50;;
47289;SDS011;33197;52.524;13.444;2022-12-31T06:00:41;1.67;;;0.50;;
47289;SDS011;33197;52.524;13.444;2022-12-31T06:03:08;0.73;;;0.47;;
47289;SDS011;33197;52.524;13.444;2022-12-31T06:05:40;1.20;;;0.55;;
47289;SDS011;33197;52.524;13.444;2022-12-31T06:08:08;2.05;;;0.73;;
47289;SDS011;33197;52.524;13.444;2022-12-31T06:10:37;2.45;;;1.08;;
47289;SDS011;33197;52.524;13.444;2022-12-31T06:13:05;2.15;;;1.10;;
47289;SDS011;33197;52.524;13.444;2022-12-31T06:15:35;3.33;;;0.70;;
47289;SDS011;33197;52.524;13.444;2022-12-31T06:18:03;2.33;;;0.98;;
47289;SDS011;33197;52.524;13.444;2022-12-31T06:20:30;2.17;;;0.60;;
47289;SDS011;33197;52.524;13.444;2022-12-31T06:22:57;1.80;;;0.95;;
47289;SDS011;33197;52.524;13.444;2022-12-31T06:25:25;1.90;;;0.90;;
47289;SDS011;33197;52.524;13.444;2022-12-31T06:27:52;1.75;;;0.47;;
47289;SDS011;33197;52.524;13.444;2022-12-31T06:30:20;0.50;;;0.50;;
47289;SDS011;33197;52.524;13.444;2022-12-31T06:32:47;0.90;;;0.50;;
47289;SDS011;33197;52.524;13.444;2022-12-31T06:35:14;0.70;;;0.50;;
47289;SDS011;33197;52.524;13.444;2022-12-31T06:37:41;0.68;;;0.57;;
47289;SDS011;33197;52.524;13.444;2022-12-31T06:40:09;0.52;;;0.40;;
47289;SDS011;33197;52.524;13.444;2022-12-31T06:42:36;1.25;;;0.60;;
47289;SDS011;33197;52.524;13.444;2022-12-31T06:45:04;0.77;;;0.43;;
47289;SDS011;33197;52.524;13.444;2022-12-31T06:47:31;1.90;;;0.70;;
47289;SDS011;33197;52.524;13.444;2022-12-31T06:49:59;0.68;;;0.40;;
47289;SDS011;33197;52.524;13.444;2022-12-31T06:52:26;1.25;;;0.50;;
47289;SDS011;33197;52.524;13.444;2022-12-31T06:54:53;0.77;;;0.57;;
47289;SDS011;33197;52.524;13.444;2022-12-31T06:57:20;0.73;;;0.50;;
47289;SDS011;33197;52.524;13.444;2022-12-31T06:59:49;0.68;;;0.45;;
47289;SDS011;33197;52.524;13.444;2022-12-31T07:05:20;0.57;;;0.52;;
47289;SDS011;33197;52.524;13.444;2022-12-31T07:10:52;1.02;;;0.60;;
47289;SDS011;33197;52.524;13.444;2022-12-31T07:13:44;0.30;;;0.30;;
47289;SDS011;33197;52.524;13.444;2022-12-31T07:19:40;1.05;;;0.30;;
47289;SDS011;33197;52.524;13.444;2022-12-31T07:22:23;0.65;;;0.57;;
47289;SDS011;33197;52.524;13.444;2022-12-31T07:24:51;1.35;;;0.43;;
47289;SDS011;33197;52.524;13.444;2022-12-31T07:30:14;0.90;;;0.43;;
47289;SDS011;33197;52.524;13.444;2022-12-31T07:38:06;0.82;;;0.50;;
47289;SDS011;33197;52.524;13.444;2022-12-31T07:46:53;1.38;;;0.40;;
47289;SDS011;33197;52.524;13.444;2022-12-31T07:49:23;1.00;;;0.50;;
47289;SDS011;33197;52.524;13.444;2022-12-31T07:51:51;0.47;;;0.47;;
47289;SDS011;33197;52.524;13.444;2022-12-31T07:54:19;1.02;;;0.45;;
47289;SDS011;33197;52.524;13.444;2022-12-31T07:56:46;0.93;;;0.60;;
47289;SDS011;33197;52.524;13.444;2022-12-31T08:13:19;0.60;;;0.50;;
47289;SDS011;33197;52.524;13.444;2022-12-31T08:15:47;0.70;;;0.40;;
47289;SDS011;33197;52.524;13.444;2022-12-31T08:18:15;0.40;;;0.40;;
47289;SDS011;33197;52.524;13.444;2022-12-31T08:20:51;0.77;;;0.47;;
47289;SDS011;33197;52.524;13.444;2022-12-31T08:23:25;4.82;;;0.60;;
47289;SDS011;33197;52.524;13.444;2022-12-31T08:31:21;1.85;;;0.80;;
47289;SDS011;33197;52.524;13.444;2022-12-31T08:36:37;0.43;;;0.32;;
47289;SDS011;33197;52.524;13.444;2022-12-31T08:39:24;1.38;;;0.65;;
47289;SDS011;33197;52.524;13.444;2022-12-31T08:42:38;0.90;;;0.55;;
47289;SDS011;33197;52.524;13.444;2022-12-31T08:45:24;0.57;;;0.57;;
47289;SDS011;33197;52.524;13.444;2022-12-31T08:51:03;4.88;;;0.63;;
47289;SDS011;33197;52.524;13.444;2022-12-31T08:53:31;1.83;;;0.52;;
47289;SDS011;33197;52.524;13.444;2022-12-31T08:56:06;0.47;;;0.45;;
47289;SDS011;33197;52.524;13.444;2022-12-31T09:01:17;0.80;;;0.60;;
47289;SDS011;33197;52.524;13.444;2022-12-31T09:03:54;0.98;;;0.60;;
47289;SDS011;33197;52.524;13.444;2022-12-31T09:06:33;0.57;;;0.40;;
47289;SDS011;33197;52.524;13.444;2022-12-31T09:09:07;1.25;;;0.57;;
47289;SDS011;33197;52.524;13.444;2022-12-31T09:14:49;0.95;;;0.50;;
47289;SDS011;33197;52.524;13.444;2022-12-31T09:19:48;2.03;;;0.60;;
47289;SDS011;33197;52.524;13.444;2022-12-31T09:22:16;1.45;;;0.70;;
47289;SDS011;33197;52.524;13.444;2022-12-31T09:24:43;1.05;;;0.70;;
47289;SDS011;33197;52.524;13.444;2022-12-31T09:27:17;1.25;;;0.60;;
47289;SDS011;33197;52.524;13.444;2022-12-31T09:30:01;1.00;;;0.60;;
47289;SDS011;33197;52.524;13.444;2022-12-31T09:32:47;2.00;;;0.77;;
47289;SDS011;33197;52.524;13.444;2022-12-31T09:35:33;0.93;;;0.60;;
47289;SDS011;33197;52.524;13.444;2022-12-31T09:38:15;1.33;;;0.87;;
47289;SDS011;33197;52.524;13.444;2022-12-31T09:43:49;6.05;;;4.05;;
47289;SDS011;33197;52.524;13.444;2022-12-31T09:52:51;1.90;;;0.70;;
47289;SDS011;33197;52.524;13.444;2022-12-31T09:58:21;1.65;;;0.60;;
47289;SDS011;33197;52.524;13.444;2022-12-31T10:00:58;0.50;;;0.40;;
47289;SDS011;33197;52.524;13.444;2022-12-31T10:23:19;1.55;;;0.75;;
47289;SDS011;33197;52.524;13.444;2022-12-31T10:28:55;3.22;;;0.80;;
47289;SDS011;33197;52.524;13.444;2022-12-31T10:39:30;1.80;;;0.65;;
47289;SDS011;33197;52.524;13.444;2022-12-31T10:48:40;0.73;;;0.50;;
47289;SDS011;33197;52.524;13.444;2022-12-31T10:54:41;2.60;;;0.77;;
47289;SDS011;33197;52.524;13.444;2022-12-31T11:15:32;5.40;;;0.90;;
47289;SDS011;33197;52.524;13.444;2022-12-31T11:26:07;0.70;;;0.50;;
47289;SDS011;33197;52.524;13.444;2022-12-31T11:32:03;2.28;;;0.70;;
47289;SDS011;33197;52.524;13.444;2022-12-31T11:37:45;1.98;;;0.90;;
47289;SDS011;33197;52.524;13.444;2022-12-31T11:45:25;2.35;;;0.70;;
47289;SDS011;33197;52.524;13.444;2022-12-31T11:48:02;2.30;;;0.65;;
47289;SDS011;33197;52.524;13.444;2022-12-31T11:50:59;2.70;;;0.82;;
47289;SDS011;33197;52.524;13.444;2022-12-31T11:56:34;2.05;;;0.93;;
47289;SDS011;33197;52.524;13.444;2022-12-31T11:59:09;2.08;;;0.70;;
47289;SDS011;33197;52.524;13.444;2022-12-31T12:04:30;3.00;;;0.70;;
47289;SDS011;33197;52.524;13.444;2022-12-31T12:06:57;3.17;;;1.05;;
47289;SDS011;33197;52.524;13.444;2022-12-31T12:09:28;1.88;;;0.75;;
47289;SDS011;33197;52.524;13.444;2022-12-31T12:11:58;3.70;;;0.80;;
47289;SDS011;33197;52.524;13.444;2022-12-31T12:14:31;2.95;;;0.90;;
47289;SDS011;33197;52.524;13.444;2022-12-31T12:17:01;1.92;;;0.80;;
47289;SDS011;33197;52.524;13.444;2022-12-31T12:19:33;1.33;;;0.65;;
47289;SDS011;33197;52.524;13.444;2022-12-31T12:22:10;1.98;;;0.70;;
47289;SDS011;33197;52.524;13.444;2022-12-31T12:24:39;2.40;;;1.00;;
47289;SDS011;33197;52.524;13.444;2022-12-31T12:27:18;1.17;;;0.75;;
47289;SDS011;33197;52.524;13.444;2022-12-31T12:29:46;2.78;;;1.05;;
47289;SDS011;33197;52.524;13.444;2022-12-31T12:32:18;1.60;;;0.77;;
47289;SDS011;33197;52.524;13.444;2022-12-31T12:34:47;1.90;;;1.00;;
47289;SDS011;33197;52.524;13.444;2022-12-31T12:37:29;1.80;;;0.80;;
47289;SDS011;33197;52.524;13.444;2022-12-31T12:39:59;2.03;;;0.73;;
47289;SDS011;33197;52.524;13.444;2022-12-31T12:42:31;1.55;;;0.80;;
47289;SDS011;33197;52.524;13.444;2022-12-31T12:44:59;1.23;;;0.90;;
47289;SDS011;33197;52.524;13.444;2022-12-31T12:47:30;1.73;;;0.95;;
47289;SDS011;33197;52.524;13.444;2022-12-31T12:49:57;1.48;;;0.77;;
47289;SDS011;33197;52.524;13.444;2022-12-31T13:01:25;2.22;;;1.17;;
47289;SDS011;33197;52.524;13.444;2022-12-31T13:10:32;6.10;;;0.98;;
47289;SDS011;33197;52.524;13.444;2022-12-31T13:13:40;3.47;;;1.10;;
47289;SDS011;33197;52.524;13.444;2022-12-31T13:21:34;2.33;;;0.80;;
47289;SDS011;33197;52.524;13.444;2022-12-31T13:29:25;3.42;;;0.70;;
47289;SDS011;33197;52.524;13.444;2022-12-31T13:31:54;1.50;;;0.93;;
47289;SDS011;33197;52.524;13.444;2022-12-31T13:34:24;3.60;;;0.88;;
47289;SDS011;33197;52.524;13.444;2022-12-31T13:36:55;2.70;;;0.90;;
47289;SDS011;33197;52.524;13.444;2022-12-31T13:39:26;2.40;;;1.10;;
47289;SDS011;33197;52.524;13.444;2022-12-31T13:41:57;2.03;;;0.80;;
47289;SDS011;33197;52.524;13.444;2022-12-31T13:44:30;2.70;;;0.80;;
47289;SDS011;33197;52.524;13.444;2022-12-31T13:49:31;2.45;;;0.82;;
47289;SDS011;33197;52.524;13.444;2022-12-31T13:52:06;2.15;;;0.77;;
47289;SDS011;33197;52.524;13.444;2022-12-31T13:57:33;1.83;;;0.98;;
47289;SDS011;33197;52.524;13.444;2022-12-31T14:00:16;3.47;;;0.80;;
47289;SDS011;33197;52.524;13.444;2022-12-31T14:05:15;1.45;;;0.80;;
47289;SDS011;33197;52.524;13.444;2022-12-31T14:07:56;3.45;;;0.80;;
47289;SDS011;33197;52.524;13.444;2022-12-31T14:10:50;3.92;;;1.00;;
47289;SDS011;33197;52.524;13.444;2022-12-31T14:13:36;2.55;;;1.00;;
47289;SDS011;33197;52.524;13.444;2022-12-31T14:16:15;2.40;;;0.70;;
47289;SDS011;33197;52.524;13.444;2022-12-31T14:19:03;0.77;;;0.60;;
47289;SDS011;33197;52.524;13.444;2022-12-31T14:21:38;1.65;;;0.65;;
47289;SDS011;33197;52.524;13.444;2022-12-31T14:26:48;1.52;;;0.95;;
47289;SDS011;33197;52.524;13.444;2022-12-31T14:29:31;3.58;;;1.00;;
47289;SDS011;33197;52.524;13.444;2022-12-31T14:34:57;6.78;;;1.00;;
47289;SDS011;33197;52.524;13.444;2022-12-31T14:37:38;2.90;;;0.77;;
47289;SDS011;33197;52.524;13.444;2022-12-31T14:46:15;3.30;;;0.80;;
47289;SDS011;33197;52.524;13.444;2022-12-31T14:51:30;1.95;;;1.00;;
47289;SDS011;33197;52.524;13.444;2022-12-31T14:54:01;3.05;;;1.17;;
47289;SDS011;33197;52.524;13.444;2022-12-31T14:56:29;2.90;;;1.45;;
47289;SDS011;33197;52.524;13.444;2022-12-31T14:59:00;2.78;;;0.90;;
47289;SDS011;33197;52.524;13.444;2022-12-31T15:01:28;3.90;;;1.55;;
47289;SDS011;33197;52.524;13.444;2022-12-31T15:03:56;4.53;;;1.30;;
47289;SDS011;33197;52.524;13.444;2022-12-31T15:22:53;3.83;;;1.70;;
47289;SDS011;33197;52.524;13.444;2022-12-31T15:25:23;3.55;;;1.63;;
47289;SDS011;33197;52.524;13.444;2022-12-31T15:27:53;7.00;;;2.00;;
47289;SDS011;33197;52.524;13.444;2022-12-31T15:30:29;4.05;;;1.65;;
47289;SDS011;33197;52.524;13.444;2022-12-31T15:33:37;3.35;;;1.58;;
47289;SDS011;33197;52.524;13.444;2022-12-31T15:38:40;2.78;;;1.75;;
47289;SDS011;33197;52.524;13.444;2022-12-31T15:41:15;3.60;;;1.73;;
47289;SDS011;33197;52.524;13.444;2022-12-31T15:43:55;3.38;;;1.90;;
47289;SDS011;33197;52.524;13.444;2022-12-31T15:46:27;4.05;;;2.00;;
47289;SDS011;33197;52.524;13.444;2022-12-31T15:48:59;4.97;;;1.92;;
47289;SDS011;33197;52.524;13.444;2022-12-31T15:51:42;5.63;;;2.55;;
47289;SDS011;33197;52.524;13.444;2022-12-31T15:54:15;7.78;;;3.08;;
47289;SDS011;33197;52.524;13.444;2022-12-31T15:56:48;5.90;;;3.47;;
47289;SDS011;33197;52.524;13.444;2022-12-31T15:59:16;6.13;;;3.78;;
47289;SDS011;33197;52.524;13.444;2022-12-31T16:01:44;9.45;;;4.13;;
47289;SDS011;33197;52.524;13.444;2022-12-31T16:04:19;7.30;;;4.65;;
47289;SDS011;33197;52.524;13.444;2022-12-31T16:06:48;8.80;;;5.13;;
47289;SDS011;33197;52.524;13.444;2022-12-31T16:11:46;7.40;;;4.43;;
47289;SDS011;33197;52.524;13.444;2022-12-31T16:14:18;7.97;;;4.15;;
47289;SDS011;33197;52.524;13.444;2022-12-31T16:16:52;9.43;;;4.32;;
47289;SDS011;33197;52.524;13.444;2022-12-31T16:22:00;7.07;;;4.80;;
47289;SDS011;33197;52.524;13.444;2022-12-31T16:24:40;9.10;;;4.57;;
47289;SDS011;33197;52.524;13.444;2022-12-31T16:27:28;6.28;;;3.58;;
47289;SDS011;33197;52.524;13.444;2022-12-31T16:29:57;4.90;;;3.08;;
47289;SDS011;33197;52.524;13.444;2022-12-31T16:32:26;7.07;;;4.95;;
47289;SDS011;33197;52.524;13.444;2022-12-31T16:35:26;9.02;;;3.88;;
47289;SDS011;33197;52.524;13.444;2022-12-31T16:40:33;8.73;;;3.67;;
47289;SDS011;33197;52.524;13.444;2022-12-31T16:43:00;6.03;;;3.22;;
47289;SDS011;33197;52.524;13.444;2022-12-31T16:45:32;30.58;;;15.25;;
47289;SDS011;33197;52.524;13.444;2022-12-31T16:48:22;4.55;;;2.80;;
47289;SDS011;33197;52.524;13.444;2022-12-31T16:50:49;7.07;;;2.28;;
47289;SDS011;33197;52.524;13.444;2022-12-31T16:53:19;15.27;;;4.15;;
47289;SDS011;33197;52.524;13.444;2022-12-31T16:55:51;4.35;;;2.35;;
47289;SDS011;33197;52.524;13.444;2022-12-31T16:58:32;3.10;;;2.20;;
47289;SDS011;33197;52.524;13.444;2022-12-31T17:03:41;13.07;;;7.38;;
47289;SDS011;33197;52.524;13.444;2022-12-31T17:06:12;5.30;;;3.90;;
47289;SDS011;33197;52.524;13.444;2022-12-31T17:11:26;17.00;;;9.15;;
47289;SDS011;33197;52.524;13.444;2022-12-31T17:14:05;19.08;;;14.25;;
47289;SDS011;33197;52.524;13.444;2022-12-31T17:22:02;6.28;;;2.53;;
47289;SDS011;33197;52.524;13.444;2022-12-31T17:24:31;6.55;;;3.80;;
47289;SDS011;33197;52.524;13.444;2022-12-31T17:27:05;12.48;;;3.42;;
47289;SDS011;33197;52.524;13.444;2022-12-31T17:29:33;7.25;;;3.10;;
47289;SDS011;33197;52.524;13.444;2022-12-31T17:34:30;9.90;;;3.55;;
47289;SDS011;33197;52.524;13.444;2022-12-31T17:39:40;5.80;;;3.40;;
47289;SDS011;33197;52.524;13.444;2022-12-31T17:42:11;13.32;;;8.82;;
47289;SDS011;33197;52.524;13.444;2022-12-31T17:44:40;7.47;;;3.70;;
47289;SDS011;33197;52.524;13.444;2022-12-31T17:47:09;6.72;;;3.60;;
47289;SDS011;33197;52.524;13.444;2022-12-31T17:49:40;9.63;;;3.45;;
47289;SDS011;33197;52.524;13.444;2022-12-31T17:52:13;9.25;;;4.60;;
47289;SDS011;33197;52.524;13.444;2022-12-31T17:54:41;5.28;;;2.80;;
47289;SDS011;33197;52.524;13.444;2022-12-31T17:57:17;7.95;;;3.55;;
47289;SDS011;33197;52.524;13.444;2022-12-31T17:59:49;7.90;;;2.85;;
47289;SDS011;33197;52.524;13.444;2022-12-31T18:02:16;5.07;;;2.65;;
47289;SDS011;33197;52.524;13.444;2022-12-31T18:04:43;4.93;;;3.10;;
47289;SDS011;33197;52.524;13.444;2022-12-31T18:07:11;3.92;;;2.33;;
47289;SDS011;33197;52.524;13.444;2022-12-31T18:09:38;3.75;;;2.33;;
47289;SDS011;33197;52.524;13.444;2022-12-31T18:12:06;5.15;;;3.25;;
47289;SDS011;33197;52.524;13.444;2022-12-31T18:14:33;7.32;;;3.30;;
47289;SDS011;33197;52.524;13.444;2022-12-31T18:17:00;8.25;;;3.33;;
47289;SDS011;33197;52.524;13.444;2022-12-31T18:19:27;3.78;;;2.67;;
47289;SDS011;33197;52.524;13.444;2022-12-31T18:22:14;8.07;;;3.72;;
47289;SDS011;33197;52.524;13.444;2022-12-31T18:24:42;6.18;;;3.53;;
47289;SDS011;33197;52.524;13.444;2022-12-31T18:27:13;6.78;;;3.45;;
47289;SDS011;33197;52.524;13.444;2022-12-31T18:29:42;6.35;;;4.00;;
47289;SDS011;33197;52.524;13.444;2022-12-31T18:34:49;5.10;;;2.95;;
47289;SDS011;33197;52.524;13.444;2022-12-31T18:37:17;8.95;;;3.72;;
47289;SDS011;33197;52.524;13.444;2022-12-31T18:39:48;11.88;;;3.95;;
47289;SDS011;33197;52.524;13.444;2022-12-31T18:42:16;6.22;;;3.30;;
47289;SDS011;33197;52.524;13.444;2022-12-31T18:44:44;4.82;;;3.20;;
47289;SDS011;33197;52.524;13.444;2022-12-31T18:47:12;6.68;;;3.03;;
47289;SDS011;33197;52.524;13.444;2022-12-31T18:49:41;6.57;;;3.42;;
47289;SDS011;33197;52.524;13.444;2022-12-31T18:52:14;12.38;;;7.68;;
47289;SDS011;33197;52.524;13.444;2022-12-31T18:54:42;7.50;;;3.08;;
47289;SDS011;33197;52.524;13.444;2022-12-31T18:57:10;11.68;;;6.00;;
47289;SDS011;33197;52.524;13.444;2022-12-31T19:02:19;10.57;;;5.20;;
47289;SDS011;33197;52.524;13.444;2022-12-31T19:04:46;12.38;;;7.15;;
47289;SDS011;33197;52.524;13.444;2022-12-31T19:07:14;12.23;;;5.22;;
47289;SDS011;33197;52.524;13.444;2022-12-31T19:09:41;11.52;;;6.65;;
47289;SDS011;33197;52.524;13.444;2022-12-31T19:12:12;7.07;;;4.10;;
47289;SDS011;33197;52.524;13.444;2022-12-31T19:14:40;10.90;;;5.20;;
47289;SDS011;33197;52.524;13.444;2022-12-31T19:21:14;12.95;;;4.05;;
47289;SDS011;33197;52.524;13.444;2022-12-31T19:23:46;8.48;;;4.07;;
47289;SDS011;33197;52.524;13.444;2022-12-31T19:26:14;10.20;;;5.03;;
47289;SDS011;33197;52.524;13.444;2022-12-31T19:28:42;7.85;;;3.83;;
47289;SDS011;33197;52.524;13.444;2022-12-31T19:31:10;6.68;;;4.00;;